sensor_id;sensor_type;location;lat;lon;timestamp;P1;durP1;ratioP1;P2;durP2;ratioP2
62110;SDS011;48102;47.526;19.072;2023-04-06T03:40:32;1.45;;;1.35;;
62110;SDS011;48102;47.526;19.072;2023-04-06T03:43:35;2.90;;;2.70;;
62110;SDS011;48102;47.526;19.072;2023-04-06T03:46:39;3.05;;;2.85;;
62110;SDS011;48102;47.526;19.072;2023-04-06T03:49:42;7.72;;;1.98;;
62110;SDS011;48102;47.526;19.072;2023-04-06T03:52:45;2.70;;;2.12;;
62110;SDS011;48102;47.526;19.072;2023-04-06T03:58:52;2.22;;;1.87;;
62110;SDS011;48102;47.526;19.072;2023-04-06T04:01:55;8.68;;;2.87;;
62110;SDS011;48102;47.526;19.072;2023-04-06T04:04:58;3.37;;;1.75;;
62110;SDS011;48102;47.526;19.072;2023-04-06T04:08:01;2.87;;;2.60;;
62110;SDS011;48102;47.526;19.072;2023-04-06T04:11:05;3.22;;;2.97;;
62110;SDS011;48102;47.526;19.072;2023-04-06T04:14:09;2.90;;;2.42;;
62110;SDS011;48102;47.526;19.072;2023-04-06T04:17:12;3.45;;;2.30;;
62110;SDS011;48102;47.526;19.072;2023-04-06T04:20:15;3.97;;;3.05;;
62110;SDS011;48102;47.526;19.072;2023-04-06T04:23:19;3.25;;;1.95;;
62110;SDS011;48102;47.526;19.072;2023-04-06T04:26:23;6.80;;;3.97;;
62110;SDS011;48102;47.526;19.072;2023-04-06T04:29:26;6.03;;;3.15;;
62110;SDS011;48102;47.526;19.072;2023-04-06T04:32:32;7.00;;;4.70;;
62110;SDS011;48102;47.526;19.072;2023-04-06T04:35:35;6.03;;;3.65;;
62110;SDS011;48102;47.526;19.072;2023-04-06T04:38:39;2.87;;;2.67;;
62110;SDS011;48102;47.526;19.072;2023-04-06T04:41:42;11.48;;;3.25;;
62110;SDS011;48102;47.526;19.072;2023-04-06T04:44:46;4.47;;;3.22;;
62110;SDS011;48102;47.526;19.072;2023-04-06T04:47:50;9.75;;;3.33;;
62110;SDS011;48102;47.526;19.072;2023-04-06T04:50:54;4.15;;;2.50;;
62110;SDS011;48102;47.526;19.072;2023-04-06T04:53:58;5.07;;;3.92;;
62110;SDS011;48102;47.526;19.072;2023-04-06T04:57:03;4.95;;;3.78;;
62110;SDS011;48102;47.526;19.072;2023-04-06T05:00:07;8.50;;;3.58;;
62110;SDS011;48102;47.526;19.072;2023-04-06T05:03:14;6.68;;;3.22;;
62110;SDS011;48102;47.526;19.072;2023-04-06T05:06:28;3.42;;;2.58;;
62110;SDS011;48102;47.526;19.072;2023-04-06T05:09:31;3.25;;;2.92;;
62110;SDS011;48102;47.526;19.072;2023-04-06T05:12:35;4.97;;;3.05;;
62110;SDS011;48102;47.526;19.072;2023-04-06T05:15:38;3.80;;;3.40;;
62110;SDS011;48102;47.526;19.072;2023-04-06T05:18:43;6.75;;;3.55;;
62110;SDS011;48102;47.526;19.072;2023-04-06T05:21:47;3.37;;;2.65;;
62110;SDS011;48102;47.526;19.072;2023-04-06T05:24:50;5.57;;;4.15;;
62110;SDS011;48102;47.526;19.072;2023-04-06T05:27:53;8.38;;;4.43;;
62110;SDS011;48102;47.526;19.072;2023-04-06T05:30:59;6.03;;;4.32;;
62110;SDS011;48102;47.526;19.072;2023-04-06T05:34:03;4.25;;;3.42;;
62110;SDS011;48102;47.526;19.072;2023-04-06T05:37:06;8.40;;;4.53;;
62110;SDS011;48102;47.526;19.072;2023-04-06T05:40:10;7.32;;;4.00;;
62110;SDS011;48102;47.526;19.072;2023-04-06T05:43:14;5.05;;;3.65;;
62110;SDS011;48102;47.526;19.072;2023-04-06T05:49:20;5.45;;;3.15;;
62110;SDS011;48102;47.526;19.072;2023-04-06T05:52:23;3.72;;;3.42;;
62110;SDS011;48102;47.526;19.072;2023-04-06T05:58:31;3.87;;;2.85;;
62110;SDS011;48102;47.526;19.072;2023-04-06T06:01:35;5.87;;;3.87;;
62110;SDS011;48102;47.526;19.072;2023-04-06T06:04:40;6.80;;;5.18;;
62110;SDS011;48102;47.526;19.072;2023-04-06T06:07:42;13.93;;;4.45;;
62110;SDS011;48102;47.526;19.072;2023-04-06T06:13:50;4.62;;;3.28;;
62110;SDS011;48102;47.526;19.072;2023-04-06T06:16:54;5.87;;;3.45;;
62110;SDS011;48102;47.526;19.072;2023-04-06T06:19:57;8.13;;;4.35;;
62110;SDS011;48102;47.526;19.072;2023-04-06T06:23:01;3.15;;;2.80;;
62110;SDS011;48102;47.526;19.072;2023-04-06T06:26:09;6.65;;;4.30;;
62110;SDS011;48102;47.526;19.072;2023-04-06T06:29:12;8.82;;;4.37;;
62110;SDS011;48102;47.526;19.072;2023-04-06T06:32:15;10.48;;;4.00;;
62110;SDS011;48102;47.526;19.072;2023-04-06T06:35:20;5.70;;;3.95;;
62110;SDS011;48102;47.526;19.072;2023-04-06T06:38:23;5.65;;;3.58;;
62110;SDS011;48102;47.526;19.072;2023-04-06T06:44:30;6.32;;;4.07;;
62110;SDS011;48102;47.526;19.072;2023-04-06T06:47:33;8.07;;;4.35;;
62110;SDS011;48102;47.526;19.072;2023-04-06T06:50:36;5.90;;;3.92;;
62110;SDS011;48102;47.526;19.072;2023-04-06T06:53:39;3.80;;;3.20;;
62110;SDS011;48102;47.526;19.072;2023-04-06T06:56:42;4.57;;;3.90;;
62110;SDS011;48102;47.526;19.072;2023-04-06T06:59:46;5.20;;;3.30;;
62110;SDS011;48102;47.526;19.072;2023-04-06T07:02:50;12.63;;;4.25;;
62110;SDS011;48102;47.526;19.072;2023-04-06T07:05:53;6.18;;;3.90;;
62110;SDS011;48102;47.526;19.072;2023-04-06T07:08:56;9.63;;;3.80;;
62110;SDS011;48102;47.526;19.072;2023-04-06T07:11:59;4.00;;;3.10;;
62110;SDS011;48102;47.526;19.072;2023-04-06T07:15:03;4.28;;;3.17;;
62110;SDS011;48102;47.526;19.072;2023-04-06T07:18:08;9.25;;;3.97;;
62110;SDS011;48102;47.526;19.072;2023-04-06T07:21:12;7.10;;;3.60;;
62110;SDS011;48102;47.526;19.072;2023-04-06T07:24:15;5.95;;;3.35;;
62110;SDS011;48102;47.526;19.072;2023-04-06T07:27:18;5.35;;;3.58;;
62110;SDS011;48102;47.526;19.072;2023-04-06T07:30:21;5.30;;;4.45;;
62110;SDS011;48102;47.526;19.072;2023-04-06T07:33:25;7.57;;;3.60;;
62110;SDS011;48102;47.526;19.072;2023-04-06T07:36:32;5.55;;;3.83;;
62110;SDS011;48102;47.526;19.072;2023-04-06T07:39:35;5.78;;;3.83;;
62110;SDS011;48102;47.526;19.072;2023-04-06T07:42:39;9.05;;;4.30;;
62110;SDS011;48102;47.526;19.072;2023-04-06T07:45:43;9.05;;;3.85;;
62110;SDS011;48102;47.526;19.072;2023-04-06T07:48:48;5.68;;;3.78;;
62110;SDS011;48102;47.526;19.072;2023-04-06T07:51:52;6.65;;;3.62;;
62110;SDS011;48102;47.526;19.072;2023-04-06T07:54:57;5.62;;;4.00;;
62110;SDS011;48102;47.526;19.072;2023-04-06T07:58:00;6.47;;;3.75;;
62110;SDS011;48102;47.526;19.072;2023-04-06T08:01:04;7.37;;;3.78;;
62110;SDS011;48102;47.526;19.072;2023-04-06T08:04:08;11.40;;;3.65;;
62110;SDS011;48102;47.526;19.072;2023-04-06T08:10:14;8.18;;;3.28;;
62110;SDS011;48102;47.526;19.072;2023-04-06T08:13:16;5.97;;;3.10;;
62110;SDS011;48102;47.526;19.072;2023-04-06T08:16:20;11.02;;;3.70;;
62110;SDS011;48102;47.526;19.072;2023-04-06T08:19:23;6.40;;;3.62;;
62110;SDS011;48102;47.526;19.072;2023-04-06T08:25:29;5.32;;;3.53;;
62110;SDS011;48102;47.526;19.072;2023-04-06T08:31:36;4.85;;;3.67;;
62110;SDS011;48102;47.526;19.072;2023-04-06T08:34:40;5.05;;;3.67;;
62110;SDS011;48102;47.526;19.072;2023-04-06T08:37:42;6.57;;;4.03;;
62110;SDS011;48102;47.526;19.072;2023-04-06T08:40:48;6.60;;;4.37;;
62110;SDS011;48102;47.526;19.072;2023-04-06T08:43:57;11.23;;;3.62;;
62110;SDS011;48102;47.526;19.072;2023-04-06T08:47:01;8.55;;;3.60;;
62110;SDS011;48102;47.526;19.072;2023-04-06T08:50:08;5.00;;;3.33;;
62110;SDS011;48102;47.526;19.072;2023-04-06T08:53:14;5.18;;;3.72;;
62110;SDS011;48102;47.526;19.072;2023-04-06T08:56:18;5.20;;;3.03;;
62110;SDS011;48102;47.526;19.072;2023-04-06T08:59:23;7.07;;;3.65;;
62110;SDS011;48102;47.526;19.072;2023-04-06T09:02:27;5.72;;;3.30;;
62110;SDS011;48102;47.526;19.072;2023-04-06T09:05:30;6.15;;;3.20;;
62110;SDS011;48102;47.526;19.072;2023-04-06T09:08:34;3.95;;;3.45;;
62110;SDS011;48102;47.526;19.072;2023-04-06T09:11:48;6.25;;;3.22;;
62110;SDS011;48102;47.526;19.072;2023-04-06T09:14:52;4.85;;;3.10;;
62110;SDS011;48102;47.526;19.072;2023-04-06T09:17:56;4.87;;;2.75;;
62110;SDS011;48102;47.526;19.072;2023-04-06T09:21:03;4.15;;;2.75;;
62110;SDS011;48102;47.526;19.072;2023-04-06T09:24:08;5.82;;;3.10;;
62110;SDS011;48102;47.526;19.072;2023-04-06T09:27:12;7.68;;;3.35;;
62110;SDS011;48102;47.526;19.072;2023-04-06T09:30:16;4.65;;;3.37;;
62110;SDS011;48102;47.526;19.072;2023-04-06T09:33:23;4.10;;;3.17;;
62110;SDS011;48102;47.526;19.072;2023-04-06T09:36:34;4.70;;;3.50;;
62110;SDS011;48102;47.526;19.072;2023-04-06T09:39:43;5.03;;;2.53;;
62110;SDS011;48102;47.526;19.072;2023-04-06T09:42:48;4.97;;;3.35;;
62110;SDS011;48102;47.526;19.072;2023-04-06T09:45:57;4.62;;;2.75;;
62110;SDS011;48102;47.526;19.072;2023-04-06T09:49:03;3.90;;;2.72;;
62110;SDS011;48102;47.526;19.072;2023-04-06T09:52:06;4.78;;;3.03;;
62110;SDS011;48102;47.526;19.072;2023-04-06T09:55:11;4.25;;;3.03;;
62110;SDS011;48102;47.526;19.072;2023-04-06T09:58:20;4.30;;;2.78;;
62110;SDS011;48102;47.526;19.072;2023-04-06T10:01:32;5.50;;;3.17;;
62110;SDS011;48102;47.526;19.072;2023-04-06T10:04:37;5.30;;;3.00;;
62110;SDS011;48102;47.526;19.072;2023-04-06T10:07:45;6.43;;;3.03;;
62110;SDS011;48102;47.526;19.072;2023-04-06T10:11:02;4.35;;;2.67;;
62110;SDS011;48102;47.526;19.072;2023-04-06T10:17:09;7.90;;;3.37;;
62110;SDS011;48102;47.526;19.072;2023-04-06T10:20:25;4.53;;;3.00;;
62110;SDS011;48102;47.526;19.072;2023-04-06T10:23:49;7.05;;;2.90;;
62110;SDS011;48102;47.526;19.072;2023-04-06T10:26:56;4.00;;;2.95;;
62110;SDS011;48102;47.526;19.072;2023-04-06T10:30:04;4.78;;;2.85;;
62110;SDS011;48102;47.526;19.072;2023-04-06T10:33:17;4.45;;;2.75;;
62110;SDS011;48102;47.526;19.072;2023-04-06T10:36:26;9.38;;;3.10;;
62110;SDS011;48102;47.526;19.072;2023-04-06T10:39:47;4.68;;;2.85;;
62110;SDS011;48102;47.526;19.072;2023-04-06T10:46:12;4.37;;;3.35;;
62110;SDS011;48102;47.526;19.072;2023-04-06T10:49:17;3.95;;;2.83;;
62110;SDS011;48102;47.526;19.072;2023-04-06T10:52:20;3.80;;;2.95;;
62110;SDS011;48102;47.526;19.072;2023-04-06T10:55:26;2.87;;;2.53;;
62110;SDS011;48102;47.526;19.072;2023-04-06T10:58:32;4.93;;;2.95;;
62110;SDS011;48102;47.526;19.072;2023-04-06T11:01:35;5.47;;;2.78;;
62110;SDS011;48102;47.526;19.072;2023-04-06T11:04:38;6.87;;;2.78;;
62110;SDS011;48102;47.526;19.072;2023-04-06T11:07:41;4.80;;;3.08;;
62110;SDS011;48102;47.526;19.072;2023-04-06T11:13:52;4.10;;;2.50;;
62110;SDS011;48102;47.526;19.072;2023-04-06T11:16:56;4.65;;;2.80;;
62110;SDS011;48102;47.526;19.072;2023-04-06T11:20:00;2.95;;;2.65;;
62110;SDS011;48102;47.526;19.072;2023-04-06T11:23:03;4.32;;;2.83;;
62110;SDS011;48102;47.526;19.072;2023-04-06T11:29:13;3.92;;;2.67;;
62110;SDS011;48102;47.526;19.072;2023-04-06T11:32:21;4.68;;;3.03;;
62110;SDS011;48102;47.526;19.072;2023-04-06T11:35:25;4.25;;;2.65;;
62110;SDS011;48102;47.526;19.072;2023-04-06T11:38:29;3.45;;;2.53;;
62110;SDS011;48102;47.526;19.072;2023-04-06T11:41:38;4.12;;;3.05;;
62110;SDS011;48102;47.526;19.072;2023-04-06T11:44:43;3.95;;;2.60;;
62110;SDS011;48102;47.526;19.072;2023-04-06T11:48:00;5.68;;;2.97;;
62110;SDS011;48102;47.526;19.072;2023-04-06T11:51:03;5.30;;;2.75;;
62110;SDS011;48102;47.526;19.072;2023-04-06T11:54:07;5.72;;;3.35;;
62110;SDS011;48102;47.526;19.072;2023-04-06T12:00:13;3.17;;;2.55;;
62110;SDS011;48102;47.526;19.072;2023-04-06T12:03:19;3.92;;;2.58;;
62110;SDS011;48102;47.526;19.072;2023-04-06T12:09:25;3.97;;;2.05;;
62110;SDS011;48102;47.526;19.072;2023-04-06T12:12:28;3.30;;;2.28;;
62110;SDS011;48102;47.526;19.072;2023-04-06T12:15:31;4.03;;;2.60;;
62110;SDS011;48102;47.526;19.072;2023-04-06T12:18:34;4.57;;;3.20;;
62110;SDS011;48102;47.526;19.072;2023-04-06T12:21:37;5.55;;;2.78;;
62110;SDS011;48102;47.526;19.072;2023-04-06T12:24:40;3.58;;;2.70;;
62110;SDS011;48102;47.526;19.072;2023-04-06T12:27:43;4.28;;;2.53;;
62110;SDS011;48102;47.526;19.072;2023-04-06T12:30:46;2.95;;;2.45;;
62110;SDS011;48102;47.526;19.072;2023-04-06T12:36:52;5.73;;;3.37;;
62110;SDS011;48102;47.526;19.072;2023-04-06T12:39:56;4.68;;;3.08;;
62110;SDS011;48102;47.526;19.072;2023-04-06T12:42:59;6.65;;;3.00;;
62110;SDS011;48102;47.526;19.072;2023-04-06T12:49:04;3.80;;;2.55;;
62110;SDS011;48102;47.526;19.072;2023-04-06T12:52:07;3.30;;;2.70;;
62110;SDS011;48102;47.526;19.072;2023-04-06T12:55:10;4.07;;;2.78;;
62110;SDS011;48102;47.526;19.072;2023-04-06T13:01:16;5.30;;;3.10;;
62110;SDS011;48102;47.526;19.072;2023-04-06T13:04:19;3.22;;;2.42;;
62110;SDS011;48102;47.526;19.072;2023-04-06T13:07:22;7.12;;;3.30;;
62110;SDS011;48102;47.526;19.072;2023-04-06T13:10:25;3.37;;;2.92;;
62110;SDS011;48102;47.526;19.072;2023-04-06T13:13:29;5.20;;;2.55;;
62110;SDS011;48102;47.526;19.072;2023-04-06T13:16:33;3.70;;;2.30;;
62110;SDS011;48102;47.526;19.072;2023-04-06T13:19:35;5.12;;;3.28;;
62110;SDS011;48102;47.526;19.072;2023-04-06T13:25:41;7.77;;;3.07;;
62110;SDS011;48102;47.526;19.072;2023-04-06T13:28:45;3.75;;;2.62;;
62110;SDS011;48102;47.526;19.072;2023-04-06T13:31:47;2.40;;;2.10;;
62110;SDS011;48102;47.526;19.072;2023-04-06T13:34:51;4.85;;;2.92;;
62110;SDS011;48102;47.526;19.072;2023-04-06T13:37:57;4.30;;;2.80;;
62110;SDS011;48102;47.526;19.072;2023-04-06T13:41:00;5.10;;;2.92;;
62110;SDS011;48102;47.526;19.072;2023-04-06T13:44:03;3.62;;;2.25;;
62110;SDS011;48102;47.526;19.072;2023-04-06T13:47:07;4.40;;;2.40;;
62110;SDS011;48102;47.526;19.072;2023-04-06T13:50:09;3.47;;;2.78;;
62110;SDS011;48102;47.526;19.072;2023-04-06T13:53:13;4.68;;;2.50;;
62110;SDS011;48102;47.526;19.072;2023-04-06T13:59:19;3.55;;;2.03;;
62110;SDS011;48102;47.526;19.072;2023-04-06T14:02:22;3.15;;;2.25;;
62110;SDS011;48102;47.526;19.072;2023-04-06T14:05:32;3.80;;;2.42;;
62110;SDS011;48102;47.526;19.072;2023-04-06T14:08:35;3.78;;;2.55;;
62110;SDS011;48102;47.526;19.072;2023-04-06T14:11:38;4.40;;;2.50;;
62110;SDS011;48102;47.526;19.072;2023-04-06T14:14:41;4.47;;;2.08;;
62110;SDS011;48102;47.526;19.072;2023-04-06T14:20:55;3.37;;;2.25;;
62110;SDS011;48102;47.526;19.072;2023-04-06T14:23:58;2.92;;;2.10;;
62110;SDS011;48102;47.526;19.072;2023-04-06T14:27:01;4.68;;;2.55;;
62110;SDS011;48102;47.526;19.072;2023-04-06T14:30:05;4.25;;;2.78;;
62110;SDS011;48102;47.526;19.072;2023-04-06T14:33:11;2.08;;;1.80;;
62110;SDS011;48102;47.526;19.072;2023-04-06T14:36:14;2.75;;;2.05;;
62110;SDS011;48102;47.526;19.072;2023-04-06T14:39:17;5.15;;;2.30;;
62110;SDS011;48102;47.526;19.072;2023-04-06T14:45:23;5.60;;;2.12;;
62110;SDS011;48102;47.526;19.072;2023-04-06T14:48:26;2.75;;;2.10;;
62110;SDS011;48102;47.526;19.072;2023-04-06T14:51:30;3.37;;;1.85;;
62110;SDS011;48102;47.526;19.072;2023-04-06T14:57:35;4.55;;;2.37;;
62110;SDS011;48102;47.526;19.072;2023-04-06T15:00:42;2.85;;;2.20;;
62110;SDS011;48102;47.526;19.072;2023-04-06T15:03:44;3.70;;;2.28;;
62110;SDS011;48102;47.526;19.072;2023-04-06T15:06:48;2.28;;;1.80;;
62110;SDS011;48102;47.526;19.072;2023-04-06T15:09:50;2.95;;;2.33;;
62110;SDS011;48102;47.526;19.072;2023-04-06T15:12:53;6.25;;;2.30;;
62110;SDS011;48102;47.526;19.072;2023-04-06T15:15:56;5.80;;;2.72;;
62110;SDS011;48102;47.526;19.072;2023-04-06T15:19:02;3.67;;;2.55;;
